createdAt,value
2023-11-18T00:00:12.959Z,5.69
2023-11-18T00:01:34.122Z,5.68
2023-11-18T00:02:37.648Z,5.68
2023-11-18T00:03:41.610Z,5.68
2023-11-18T00:04:45.097Z,5.67
2023-11-18T00:05:48.440Z,5.66
2023-11-18T00:06:53.254Z,5.66
2023-11-18T00:07:56.588Z,5.64
2023-11-18T00:09:00.205Z,5.62
2023-11-18T00:10:04.951Z,5.60
2023-11-18T00:11:09.621Z,5.59
2023-11-18T00:12:13.198Z,5.58
2023-11-18T00:13:16.654Z,5.55
2023-11-18T00:14:21.518Z,5.54
2023-11-18T00:15:25.069Z,5.53
2023-11-18T00:16:30.362Z,5.51
2023-11-18T00:17:34.550Z,5.50
2023-11-18T00:18:38.349Z,5.50
2023-11-18T00:19:43.124Z,5.49
2023-11-18T00:20:46.533Z,5.49
2023-11-18T00:21:50.398Z,5.51
2023-11-18T00:22:54.206Z,5.51
2023-11-18T00:23:57.870Z,5.52
2023-11-18T00:25:01.671Z,5.52
2023-11-18T00:26:07.553Z,5.53
2023-11-18T00:27:11.100Z,5.53
2023-11-18T00:28:14.796Z,5.55
2023-11-18T00:29:18.210Z,5.54
2023-11-18T00:30:21.649Z,5.54
2023-11-18T00:31:25.689Z,5.53
2023-11-18T00:32:29.866Z,5.53
2023-11-18T00:33:33.456Z,5.53
2023-11-18T00:34:37.110Z,5.53
2023-11-18T00:35:40.490Z,5.54
2023-11-18T00:36:44.210Z,5.53
2023-11-18T00:37:48.771Z,5.54
2023-11-18T00:38:52.232Z,5.55
2023-11-18T00:39:55.741Z,5.55
2023-11-18T00:40:59.360Z,5.55
2023-11-18T00:42:03.536Z,5.53
2023-11-18T00:43:09.190Z,5.50
2023-11-18T00:44:13.912Z,5.48
2023-11-18T00:45:18.602Z,5.46
2023-11-18T00:46:22.815Z,5.43
2023-11-18T00:47:26.468Z,5.42
2023-11-18T00:48:30.881Z,5.39
2023-11-18T00:49:35.463Z,5.38
2023-11-18T00:50:38.978Z,5.35
2023-11-18T00:51:42.738Z,5.33
2023-11-18T00:52:50.385Z,5.32
2023-11-18T00:53:55.089Z,5.30
2023-11-18T00:54:58.852Z,5.29
2023-11-18T00:56:02.998Z,5.27
2023-11-18T00:57:07.965Z,5.26
2023-11-18T00:58:11.758Z,5.23
2023-11-18T00:59:16.448Z,5.21
2023-11-18T01:00:23.900Z,5.21
2023-11-18T01:01:27.311Z,5.19
2023-11-18T01:02:31.760Z,5.18
2023-11-18T01:03:35.098Z,5.16
2023-11-18T01:04:39.403Z,5.13
2023-11-18T01:05:43.105Z,5.11
2023-11-18T01:06:47.960Z,5.07
2023-11-18T01:07:51.474Z,5.05
2023-11-18T01:08:54.605Z,5.01
2023-11-18T01:09:58.337Z,4.98
2023-11-18T01:11:02.253Z,4.95
2023-11-18T01:12:10.139Z,4.93
2023-11-18T01:13:14.122Z,4.89
2023-11-18T01:14:18.059Z,4.87
2023-11-18T01:15:21.456Z,4.85
2023-11-18T01:16:25.656Z,4.83
2023-11-18T01:17:30.104Z,4.81
2023-11-18T01:18:33.478Z,4.79
2023-11-18T01:19:37.052Z,4.77
2023-11-18T01:20:41.367Z,4.74
2023-11-18T01:21:44.739Z,4.72
2023-11-18T01:22:49.647Z,4.70
2023-11-18T01:23:52.803Z,4.68
2023-11-18T01:24:58.624Z,4.65
2023-11-18T01:26:02.344Z,4.62
2023-11-18T01:27:10.232Z,4.60
2023-11-18T01:28:15.976Z,4.57
2023-11-18T01:29:19.393Z,4.56
2023-11-18T01:30:24.514Z,4.54
2023-11-18T01:31:32.194Z,4.52
2023-11-18T01:32:40.398Z,4.50
2023-11-18T01:33:45.650Z,4.49
2023-11-18T01:34:50.858Z,4.48
2023-11-18T01:35:55.841Z,4.47
2023-11-18T01:36:59.138Z,4.45
2023-11-18T01:38:03.418Z,4.45
2023-11-18T01:39:07.984Z,4.44
2023-11-18T01:40:13.709Z,4.44
2023-11-18T01:41:17.460Z,4.44
2023-11-18T01:42:21.497Z,4.45
2023-11-18T01:43:24.586Z,4.46
2023-11-18T01:44:31.405Z,4.46
2023-11-18T01:45:35.356Z,4.46
2023-11-18T01:46:39.027Z,4.46
2023-11-18T01:47:43.735Z,4.45
2023-11-18T01:48:46.981Z,4.45
2023-11-18T01:49:50.272Z,4.45
2023-11-18T01:50:56.438Z,4.45
2023-11-18T01:52:02.314Z,4.44
2023-11-18T01:53:06.338Z,4.43
2023-11-18T01:54:15.586Z,4.42
2023-11-18T01:55:18.858Z,4.42
2023-11-18T01:56:26.036Z,4.41
2023-11-18T01:57:31.106Z,4.40
2023-11-18T01:58:36.773Z,4.39
2023-11-18T01:59:40.869Z,4.39
2023-11-18T02:00:46.906Z,4.39
2023-11-18T02:01:53.634Z,4.40
2023-11-18T02:02:57.698Z,4.40
2023-11-18T02:04:01.768Z,4.41
2023-11-18T02:05:06.677Z,4.40
2023-11-18T02:06:11.639Z,4.41
2023-11-18T02:07:15.797Z,4.41
2023-11-18T02:08:19.616Z,4.41
2023-11-18T02:09:33.046Z,4.42
2023-11-18T02:10:43.857Z,4.41
2023-11-18T02:11:53.843Z,4.41
2023-11-18T02:13:07.477Z,4.40
2023-11-18T02:14:14.296Z,4.41
2023-11-18T02:15:20.025Z,4.42
2023-11-18T02:16:24.682Z,4.44
2023-11-18T02:17:30.159Z,4.45
2023-11-18T02:18:34.554Z,4.47
2023-11-18T02:19:41.143Z,4.48
2023-11-18T02:20:46.398Z,4.49
2023-11-18T02:21:51.323Z,4.51
2023-11-18T02:22:55.524Z,4.52
2023-11-18T02:23:59.068Z,4.53
2023-11-18T02:25:07.848Z,4.56
2023-11-18T02:26:11.464Z,4.57
2023-11-18T02:27:15.166Z,4.58
2023-11-18T02:28:18.956Z,4.59
2023-11-18T02:29:22.970Z,4.61
2023-11-18T02:30:28.264Z,4.63
2023-11-18T02:31:37.929Z,4.66
2023-11-18T02:32:48.493Z,4.68
2023-11-18T02:34:00.496Z,4.70
2023-11-18T02:35:10.715Z,4.71
2023-11-18T02:36:21.035Z,4.72
2023-11-18T02:37:28.341Z,4.73
2023-11-18T02:38:38.976Z,4.74
2023-11-18T02:39:49.905Z,4.74
2023-11-18T02:40:57.670Z,4.74
2023-11-18T02:42:04.208Z,4.74
2023-11-18T02:43:09.907Z,4.73
2023-11-18T02:44:18.914Z,4.73
2023-11-18T02:45:21.490Z,4.71
2023-11-18T02:46:28.201Z,4.70
2023-11-18T02:47:32.118Z,4.68
2023-11-18T02:48:38.360Z,4.68
2023-11-18T02:49:41.705Z,4.69
2023-11-18T02:50:45.334Z,4.70
2023-11-18T02:51:48.936Z,4.72
2023-11-18T02:52:52.804Z,4.73
2023-11-18T02:53:56.625Z,4.73
2023-11-18T02:55:00.465Z,4.74
2023-11-18T02:56:05.472Z,4.76
2023-11-18T02:57:09.250Z,4.77
2023-11-18T02:58:13.015Z,4.79
2023-11-18T02:59:16.592Z,4.81
2023-11-18T03:00:24.556Z,4.84
2023-11-18T03:01:28.102Z,4.84
2023-11-18T03:02:32.309Z,4.84
2023-11-18T03:03:37.125Z,4.84
2023-11-18T03:04:44.536Z,4.84
2023-11-18T03:05:50.525Z,4.83
2023-11-18T03:06:54.490Z,4.83
2023-11-18T03:07:58.918Z,4.83
2023-11-18T03:09:03.831Z,4.83
2023-11-18T03:10:12.753Z,4.85
2023-11-18T03:11:16.216Z,4.86
2023-11-18T03:12:19.927Z,4.86
2023-11-18T03:13:23.709Z,4.85
2023-11-18T03:14:29.166Z,4.84
2023-11-18T03:15:32.762Z,4.83
2023-11-18T03:16:36.931Z,4.83
2023-11-18T03:17:40.602Z,4.82
2023-11-18T03:18:44.406Z,4.82
2023-11-18T03:19:48.542Z,4.82
2023-11-18T03:20:52.818Z,4.81
2023-11-18T03:21:56.817Z,4.82
2023-11-18T03:23:02.179Z,4.82
2023-11-18T03:24:09.919Z,4.84
2023-11-18T03:25:14.055Z,4.84
2023-11-18T03:26:17.546Z,4.83
2023-11-18T03:27:21.316Z,4.82
2023-11-18T03:28:24.519Z,4.81
2023-11-18T03:29:28.402Z,4.80
2023-11-18T03:30:32.143Z,4.78
2023-11-18T03:31:36.254Z,4.76
2023-11-18T03:32:41.140Z,4.75
2023-11-18T03:33:45.256Z,4.75
2023-11-18T03:34:48.866Z,4.75
2023-11-18T03:35:52.868Z,4.75
2023-11-18T03:36:57.580Z,4.76
2023-11-18T03:38:01.181Z,4.76
2023-11-18T03:39:05.024Z,4.76
2023-11-18T03:40:13.449Z,4.75
2023-11-18T03:41:17.860Z,4.73
2023-11-18T03:42:22.273Z,4.71
2023-11-18T03:43:26.131Z,4.71
2023-11-18T03:44:30.385Z,4.71
2023-11-18T03:45:33.862Z,4.71
2023-11-18T03:46:37.409Z,4.74
2023-11-18T03:47:41.120Z,4.74
2023-11-18T03:48:46.073Z,4.76
2023-11-18T03:49:50.812Z,4.76
2023-11-18T03:50:54.540Z,4.75
2023-11-18T03:51:58.284Z,4.74
2023-11-18T03:53:04.237Z,4.74
2023-11-18T03:54:09.039Z,4.74
2023-11-18T03:55:14.200Z,4.73
2023-11-18T03:56:19.820Z,4.72
2023-11-18T03:57:22.920Z,4.73
2023-11-18T03:58:26.643Z,4.73
2023-11-18T03:59:30.444Z,4.74
2023-11-18T04:00:33.979Z,4.75
2023-11-18T04:01:37.912Z,4.76
2023-11-18T04:02:42.151Z,4.77
2023-11-18T04:03:45.927Z,4.79
2023-11-18T04:04:50.573Z,4.81
2023-11-18T04:05:54.551Z,4.83
2023-11-18T04:06:58.136Z,4.84
2023-11-18T04:08:01.596Z,4.85
2023-11-18T04:09:06.503Z,4.85
2023-11-18T04:10:11.089Z,4.84
2023-11-18T04:11:14.796Z,4.83
2023-11-18T04:12:18.358Z,4.83
2023-11-18T04:13:22.097Z,4.81
2023-11-18T04:14:27.005Z,4.80
2023-11-18T04:15:30.704Z,4.79
2023-11-18T04:16:35.093Z,4.77
2023-11-18T04:17:38.994Z,4.74
2023-11-18T04:18:43.850Z,4.73
2023-11-18T04:19:47.643Z,4.73
2023-11-18T04:20:51.873Z,4.73
2023-11-18T04:21:55.495Z,4.72
2023-11-18T04:22:59.343Z,4.71
2023-11-18T04:24:03.983Z,4.69
2023-11-18T04:25:10.683Z,4.67
2023-11-18T04:26:14.378Z,4.66
2023-11-18T04:27:17.943Z,4.66
2023-11-18T04:28:21.482Z,4.67
2023-11-18T04:29:24.812Z,4.69
2023-11-18T04:30:28.214Z,4.72
2023-11-18T04:31:31.592Z,4.74
2023-11-18T04:32:34.977Z,4.76
2023-11-18T04:33:41.611Z,4.77
2023-11-18T04:34:45.004Z,4.78
2023-11-18T04:35:48.963Z,4.79
2023-11-18T04:36:52.420Z,4.81
2023-11-18T04:37:55.865Z,4.82
2023-11-18T04:38:59.639Z,4.82
2023-11-18T04:40:04.350Z,4.82
2023-11-18T04:41:08.016Z,4.81
2023-11-18T04:42:12.089Z,4.82
2023-11-18T04:43:15.929Z,4.82
2023-11-18T04:44:19.651Z,4.81
2023-11-18T04:45:23.479Z,4.81
2023-11-18T04:46:26.703Z,4.81
2023-11-18T04:47:30.673Z,4.81
2023-11-18T04:48:37.040Z,4.81
2023-11-18T04:49:43.223Z,4.80
2023-11-18T04:50:48.244Z,4.79
2023-11-18T04:51:51.615Z,4.78
2023-11-18T04:52:55.383Z,4.77
2023-11-18T04:53:58.823Z,4.77
2023-11-18T04:55:03.192Z,4.76
2023-11-18T04:56:11.990Z,4.75
2023-11-18T04:57:15.328Z,4.74
2023-11-18T04:58:19.772Z,4.73
2023-11-18T04:59:23.387Z,4.72
2023-11-18T05:00:26.754Z,4.72
2023-11-18T05:01:30.785Z,4.73
2023-11-18T05:02:34.533Z,4.74
2023-11-18T05:03:38.984Z,4.75
2023-11-18T05:04:43.342Z,4.74
2023-11-18T05:05:46.731Z,4.74
2023-11-18T05:06:52.162Z,4.74
2023-11-18T05:07:55.654Z,4.72
2023-11-18T05:08:59.282Z,4.73
2023-11-18T05:10:03.855Z,4.73
2023-11-18T05:11:08.256Z,4.72
2023-11-18T05:12:12.020Z,4.70
2023-11-18T05:13:17.085Z,4.69
2023-11-18T05:14:20.717Z,4.69
2023-11-18T05:15:26.897Z,4.68
2023-11-18T05:16:31.011Z,4.69
2023-11-18T05:17:36.308Z,4.67
2023-11-18T05:18:40.342Z,4.66
2023-11-18T05:19:44.205Z,4.63
2023-11-18T05:20:48.715Z,4.62
2023-11-18T05:21:52.350Z,4.59
2023-11-18T05:22:55.960Z,4.59
2023-11-18T05:23:59.808Z,4.60
2023-11-18T05:25:03.385Z,4.60
2023-11-18T05:26:07.801Z,4.60
2023-11-18T05:27:11.884Z,4.61
2023-11-18T05:28:17.530Z,4.62
2023-11-18T05:29:21.628Z,4.62
2023-11-18T05:30:24.771Z,4.63
2023-11-18T05:31:29.844Z,4.65
2023-11-18T05:32:34.478Z,4.66
2023-11-18T05:33:38.150Z,4.68
2023-11-18T05:34:42.995Z,4.67
2023-11-18T05:35:50.701Z,4.67
2023-11-18T05:36:55.408Z,4.67
2023-11-18T05:37:59.627Z,4.67
2023-11-18T05:39:05.008Z,4.67
2023-11-18T05:40:11.937Z,4.67
2023-11-18T05:41:23.995Z,4.66
2023-11-18T05:42:30.632Z,4.64
2023-11-18T05:43:41.275Z,4.63
2023-11-18T05:44:44.557Z,4.60
2023-11-18T05:46:06.749Z,4.59
2023-11-18T05:47:12.814Z,4.57
2023-11-18T05:48:16.283Z,4.54
2023-11-18T05:49:23.170Z,4.53
2023-11-18T05:50:26.903Z,4.52
2023-11-18T05:51:30.468Z,4.52
2023-11-18T05:52:35.392Z,4.51
2023-11-18T05:53:45.786Z,4.50
2023-11-18T05:54:49.330Z,4.48
2023-11-18T05:55:52.681Z,4.47
2023-11-18T05:56:59.387Z,4.45
2023-11-18T05:58:03.721Z,4.44
2023-11-18T05:59:08.574Z,4.42
2023-11-18T06:00:16.968Z,4.39
2023-11-18T06:01:23.535Z,4.36
2023-11-18T06:02:27.178Z,4.34
2023-11-18T06:03:31.020Z,4.32
2023-11-18T06:04:35.560Z,4.31
2023-11-18T06:05:40.430Z,4.31
2023-11-18T06:06:44.013Z,4.30
2023-11-18T06:07:47.830Z,4.31
2023-11-18T06:08:51.461Z,4.30
2023-11-18T06:09:54.741Z,4.29
2023-11-18T06:10:58.465Z,4.29
2023-11-18T06:12:03.074Z,4.29
2023-11-18T06:13:06.658Z,4.27
2023-11-18T06:14:09.977Z,4.24
2023-11-18T06:15:15.435Z,4.21
2023-11-18T06:16:24.810Z,4.18
2023-11-18T06:17:28.590Z,4.14
2023-11-18T06:18:32.919Z,4.12
2023-11-18T06:19:37.812Z,4.11
2023-11-18T06:20:41.150Z,4.10
2023-11-18T06:21:44.968Z,4.10
2023-11-18T06:22:48.336Z,4.10
2023-11-18T06:23:52.212Z,4.09
2023-11-18T06:24:55.326Z,4.08
2023-11-18T06:26:00.626Z,4.09
2023-11-18T06:27:06.350Z,4.08
2023-11-18T06:28:09.846Z,4.07
2023-11-18T06:29:15.441Z,4.05
2023-11-18T06:30:20.430Z,4.05
2023-11-18T06:31:25.311Z,4.05
2023-11-18T06:32:29.059Z,4.04
2023-11-18T06:33:33.383Z,4.04
2023-11-18T06:34:37.867Z,4.05
2023-11-18T06:35:41.806Z,4.06
2023-11-18T06:36:45.010Z,4.08
2023-11-18T06:37:48.506Z,4.09
2023-11-18T06:38:53.435Z,4.11
2023-11-18T06:39:57.441Z,4.13
2023-11-18T06:41:05.261Z,4.15
2023-11-18T06:42:12.043Z,4.18
2023-11-18T06:43:15.407Z,4.20
2023-11-18T06:44:24.374Z,4.23
2023-11-18T06:45:27.974Z,4.25
2023-11-18T06:46:34.678Z,4.27
2023-11-18T06:47:38.706Z,4.29
2023-11-18T06:48:42.403Z,4.31
2023-11-18T06:49:48.045Z,4.33
2023-11-18T06:50:51.365Z,4.34
2023-11-18T06:51:54.792Z,4.35
2023-11-18T06:52:59.578Z,4.38
2023-11-18T06:54:08.737Z,4.42
2023-11-18T06:55:11.901Z,4.45
2023-11-18T06:56:16.424Z,4.47
2023-11-18T06:57:20.426Z,4.50
2023-11-18T06:58:24.170Z,4.52
2023-11-18T06:59:27.770Z,4.52
2023-11-18T07:00:31.017Z,4.52
2023-11-18T07:01:37.318Z,4.53
2023-11-18T07:02:41.513Z,4.55
2023-11-18T07:03:45.957Z,4.56
2023-11-18T07:04:50.060Z,4.58
2023-11-18T07:05:53.596Z,4.60
2023-11-18T07:06:57.011Z,4.61
2023-11-18T07:08:01.050Z,4.61
2023-11-18T07:09:12.958Z,4.60
2023-11-18T07:10:21.126Z,4.58
2023-11-18T07:11:24.622Z,4.56
2023-11-18T07:12:28.109Z,4.55
2023-11-18T07:13:31.643Z,4.53
2023-11-18T07:14:34.898Z,4.52
2023-11-18T07:15:38.349Z,4.51
2023-11-18T07:16:43.564Z,4.50
2023-11-18T07:17:47.100Z,4.49
2023-11-18T07:18:50.860Z,4.48
2023-11-18T07:19:54.695Z,4.47
2023-11-18T07:20:59.106Z,4.45
2023-11-18T07:22:03.058Z,4.44
2023-11-18T07:23:09.317Z,4.43
2023-11-18T07:24:12.802Z,4.41
2023-11-18T07:25:16.370Z,4.37
2023-11-18T07:26:19.722Z,4.34
2023-11-18T07:27:23.374Z,4.32
2023-11-18T07:28:27.025Z,4.30
2023-11-18T07:29:30.622Z,4.27
2023-11-18T07:30:36.196Z,4.23
2023-11-18T07:31:40.059Z,4.19
2023-11-18T07:32:43.880Z,4.16
2023-11-18T07:33:51.385Z,4.13
2023-11-18T07:34:56.335Z,4.09
2023-11-18T07:36:00.762Z,4.07
2023-11-18T07:37:04.724Z,4.05
2023-11-18T07:38:08.413Z,4.03
2023-11-18T07:39:16.191Z,4.02
2023-11-18T07:40:28.512Z,4.00
2023-11-18T07:41:34.086Z,3.98
2023-11-18T07:42:38.592Z,3.97
2023-11-18T07:43:45.089Z,3.95
2023-11-18T07:44:48.876Z,3.94
2023-11-18T07:45:53.327Z,3.95
2023-11-18T07:46:57.053Z,3.96
2023-11-18T07:48:00.882Z,3.95
2023-11-18T07:49:04.945Z,3.92
2023-11-18T07:50:13.087Z,3.89
2023-11-18T07:51:16.635Z,3.88
2023-11-18T07:52:20.903Z,3.86
2023-11-18T07:53:24.727Z,3.85
2023-11-18T07:54:28.157Z,3.86
2023-11-18T07:55:34.724Z,3.85
2023-11-18T07:56:38.460Z,3.85
2023-11-18T07:57:42.856Z,3.85
2023-11-18T07:58:47.021Z,3.86
2023-11-18T07:59:51.613Z,3.87
2023-11-18T08:00:55.368Z,3.87
2023-11-18T08:02:02.808Z,3.87
2023-11-18T08:03:12.119Z,3.89
2023-11-18T08:04:15.751Z,3.89
2023-11-18T08:05:20.427Z,3.89
2023-11-18T08:06:26.804Z,3.88
2023-11-18T08:07:30.300Z,3.87
2023-11-18T08:08:33.755Z,3.85
2023-11-18T08:09:39.652Z,3.82
2023-11-18T08:10:44.898Z,3.81
2023-11-18T08:11:49.946Z,3.80
2023-11-18T08:12:54.816Z,3.79
2023-11-18T08:13:59.627Z,3.78
2023-11-18T08:15:04.208Z,3.78
2023-11-18T08:16:09.516Z,3.77
2023-11-18T08:17:14.222Z,3.76
2023-11-18T08:18:17.614Z,3.74
2023-11-18T08:19:23.107Z,3.73
2023-11-18T08:20:26.869Z,3.71
2023-11-18T08:21:30.580Z,3.69
2023-11-18T08:22:34.654Z,3.68
2023-11-18T08:23:37.941Z,3.65
2023-11-18T08:24:41.195Z,3.61
2023-11-18T08:25:44.634Z,3.58
2023-11-18T08:26:48.493Z,3.56
2023-11-18T08:27:52.578Z,3.54
2023-11-18T08:28:56.053Z,3.51
2023-11-18T08:29:59.998Z,3.48
2023-11-18T08:31:03.893Z,3.47
2023-11-18T08:32:09.990Z,3.44
2023-11-18T08:33:13.888Z,3.43
2023-11-18T08:34:19.709Z,3.40
2023-11-18T08:35:23.555Z,3.40
2023-11-18T08:36:28.107Z,3.38
2023-11-18T08:37:31.954Z,3.38
2023-11-18T08:38:36.318Z,3.39
2023-11-18T08:39:40.632Z,3.39
2023-11-18T08:40:45.590Z,3.39
2023-11-18T08:41:51.407Z,3.40
2023-11-18T08:42:56.652Z,3.42
2023-11-18T08:44:13.396Z,3.43
2023-11-18T08:45:27.796Z,3.44
2023-11-18T08:46:30.084Z,3.44
2023-11-18T08:47:33.644Z,3.44
2023-11-18T08:48:36.998Z,3.44
2023-11-18T08:49:42.967Z,3.45
2023-11-18T08:50:47.436Z,3.45
2023-11-18T08:51:56.363Z,3.45
2023-11-18T08:53:00.530Z,3.45
2023-11-18T08:54:22.665Z,3.45
2023-11-18T08:55:40.122Z,3.45
2023-11-18T08:56:44.920Z,3.46
2023-11-18T08:57:58.772Z,3.46
2023-11-18T08:59:02.874Z,3.45
2023-11-18T09:00:30.149Z,3.44
2023-11-18T09:01:34.627Z,3.43
2023-11-18T09:02:47.394Z,3.42
2023-11-18T09:03:57.546Z,3.41
2023-11-18T09:05:07.252Z,3.41
2023-11-18T09:06:18.119Z,3.40
2023-11-18T09:07:22.318Z,3.41
2023-11-18T09:08:35.632Z,3.41
2023-11-18T09:09:40.452Z,3.41
2023-11-18T09:10:44.135Z,3.39
2023-11-18T09:11:49.018Z,3.38
2023-11-18T09:12:55.343Z,3.36
2023-11-18T09:14:02.127Z,3.33
2023-11-18T09:15:09.026Z,3.31
2023-11-18T09:16:12.571Z,3.30
2023-11-18T09:17:15.948Z,3.30
2023-11-18T09:18:20.459Z,3.29
2023-11-18T09:19:23.775Z,3.29
2023-11-18T09:20:28.022Z,3.29
2023-11-18T09:21:36.030Z,3.30
2023-11-18T09:22:39.720Z,3.31
2023-11-18T09:23:45.205Z,3.30
2023-11-18T09:24:50.372Z,3.29
2023-11-18T09:25:54.660Z,3.27
2023-11-18T09:26:58.225Z,3.27
2023-11-18T09:28:01.391Z,3.25
2023-11-18T09:29:04.978Z,3.25
2023-11-18T09:30:14.341Z,3.25
2023-11-18T09:31:18.231Z,3.24
2023-11-18T09:32:26.503Z,3.22
2023-11-18T09:33:34.720Z,3.21
2023-11-18T09:34:40.676Z,3.20
2023-11-18T09:35:45.942Z,3.19
2023-11-18T09:36:49.602Z,3.20
2023-11-18T09:37:53.521Z,3.20
2023-11-18T09:38:57.605Z,3.22
2023-11-18T09:40:12.566Z,3.23
2023-11-18T09:41:16.673Z,3.25
2023-11-18T09:42:20.898Z,3.26
2023-11-18T09:43:26.967Z,3.26
2023-11-18T09:44:30.865Z,3.27
2023-11-18T09:45:36.506Z,3.27
2023-11-18T09:46:47.297Z,3.27
2023-11-18T09:47:54.133Z,3.28
2023-11-18T09:49:18.794Z,3.29
2023-11-18T09:50:27.961Z,3.29
2023-11-18T09:51:41.440Z,3.28
2023-11-18T09:52:54.768Z,3.26
2023-11-18T09:54:12.243Z,3.25
2023-11-18T09:55:23.755Z,3.23
2023-11-18T09:56:39.925Z,3.23
2023-11-18T09:57:57.750Z,3.23
2023-11-18T09:59:20.264Z,3.24
2023-11-18T10:00:26.907Z,3.27
2023-11-18T10:01:33.421Z,3.29
2023-11-18T10:02:40.428Z,3.31
2023-11-18T10:03:46.631Z,3.32
2023-11-18T10:04:58.948Z,3.33
2023-11-18T10:06:06.499Z,3.32
2023-11-18T10:07:12.122Z,3.30
2023-11-18T10:08:17.327Z,3.29
2023-11-18T10:09:28.830Z,3.28
2023-11-18T10:10:46.222Z,3.26
2023-11-18T10:11:49.705Z,3.23
2023-11-18T10:12:53.515Z,3.20
2023-11-18T10:13:57.508Z,3.17
2023-11-18T10:15:04.239Z,3.13
2023-11-18T10:16:09.821Z,3.10
2023-11-18T10:17:15.407Z,3.08
2023-11-18T10:18:26.017Z,3.07
2023-11-18T10:19:57.519Z,3.05
2023-11-18T10:21:01.504Z,3.02
2023-11-18T10:22:22.284Z,3.00
2023-11-18T10:23:27.805Z,2.96
2023-11-18T10:24:45.715Z,2.93
2023-11-18T10:25:50.215Z,2.88
2023-11-18T10:26:57.223Z,2.86
2023-11-18T10:28:03.176Z,2.83
2023-11-18T10:29:09.781Z,2.81
2023-11-18T10:30:19.421Z,2.80
2023-11-18T10:31:24.929Z,2.80
2023-11-18T10:32:28.956Z,2.80
2023-11-18T10:33:36.570Z,2.80
2023-11-18T10:34:40.559Z,2.78
2023-11-18T10:35:56.341Z,2.77
2023-11-18T10:37:03.688Z,2.76
2023-11-18T10:38:08.070Z,2.73
2023-11-18T10:39:16.786Z,2.72
2023-11-18T10:40:24.695Z,2.71
2023-11-18T10:41:31.421Z,2.67
2023-11-18T10:42:34.737Z,2.65
2023-11-18T10:43:39.641Z,2.63
2023-11-18T10:44:57.784Z,2.61
2023-11-18T10:46:12.308Z,2.60
2023-11-18T10:47:17.726Z,2.59
2023-11-18T10:48:21.749Z,2.56
2023-11-18T10:49:25.472Z,2.56
2023-11-18T10:50:32.946Z,2.55
2023-11-18T10:51:39.452Z,2.52
2023-11-18T10:52:43.078Z,2.50
2023-11-18T10:54:04.316Z,2.48
2023-11-18T10:55:11.895Z,2.46
2023-11-18T10:56:27.102Z,2.45
2023-11-18T10:57:29.772Z,2.43
2023-11-18T10:58:41.697Z,2.41
2023-11-18T11:00:00.113Z,2.40
2023-11-18T11:01:05.978Z,2.37
2023-11-18T11:02:24.527Z,2.36
2023-11-18T11:03:34.056Z,2.35
2023-11-18T11:04:45.796Z,2.35
2023-11-18T11:05:50.216Z,2.34
2023-11-18T11:06:54.049Z,2.34
2023-11-18T11:08:00.193Z,2.34
2023-11-18T11:09:10.711Z,2.35
2023-11-18T11:10:14.542Z,2.36
2023-11-18T11:11:22.432Z,2.38
2023-11-18T11:12:30.522Z,2.39
2023-11-18T11:13:34.686Z,2.41
2023-11-18T11:14:46.680Z,2.44
2023-11-18T11:15:57.591Z,2.43
2023-11-18T11:17:11.686Z,2.42
2023-11-18T11:18:24.165Z,2.41
2023-11-18T11:19:44.918Z,2.39
2023-11-18T11:20:58.337Z,2.35
2023-11-18T11:22:15.731Z,2.32
2023-11-18T11:23:28.845Z,2.28
2023-11-18T11:24:50.291Z,2.24
2023-11-18T11:26:05.092Z,2.21
2023-11-18T11:27:29.496Z,2.15
2023-11-18T11:28:44.283Z,2.10
2023-11-18T11:29:57.778Z,2.07
2023-11-18T11:31:15.639Z,2.03
2023-11-18T11:32:31.183Z,2.01
2023-11-18T11:33:42.357Z,2.00
2023-11-18T11:34:54.156Z,2.00
2023-11-18T11:36:00.267Z,2.01
2023-11-18T11:37:06.486Z,2.02
2023-11-18T11:38:13.857Z,2.03
2023-11-18T11:39:22.860Z,2.02
2023-11-18T11:40:30.067Z,2.01
2023-11-18T11:41:34.920Z,2.00
2023-11-18T11:42:40.800Z,1.99
2023-11-18T11:43:44.517Z,1.99
2023-11-18T11:44:48.928Z,2.00
2023-11-18T11:45:55.040Z,2.00
2023-11-18T11:47:00.803Z,2.01
2023-11-18T11:48:25.707Z,2.02
2023-11-18T11:49:37.521Z,2.03
2023-11-18T11:50:51.972Z,2.05
2023-11-18T11:52:04.012Z,2.07
2023-11-18T11:53:14.443Z,2.08
2023-11-18T11:54:29.482Z,2.08
2023-11-18T11:55:39.078Z,2.09
2023-11-18T11:56:44.521Z,2.08
2023-11-18T11:57:58.800Z,2.07
2023-11-18T11:59:03.514Z,2.05
2023-11-18T12:00:17.756Z,2.05
2023-11-18T12:01:35.672Z,2.04
2023-11-18T12:02:41.307Z,2.03
2023-11-18T12:03:48.383Z,2.03
2023-11-18T12:04:54.985Z,2.02
2023-11-18T12:06:09.514Z,2.00
2023-11-18T12:07:20.671Z,1.98
2023-11-18T12:08:26.025Z,1.98
2023-11-18T12:09:38.536Z,1.99
2023-11-18T12:10:51.934Z,1.97
2023-11-18T12:11:58.039Z,1.94
2023-11-18T12:13:17.642Z,1.89
2023-11-18T12:14:25.034Z,1.86
2023-11-18T12:15:54.558Z,1.83
2023-11-18T12:17:08.342Z,1.79
2023-11-18T12:18:13.523Z,1.77
2023-11-18T12:19:37.137Z,1.76
2023-11-18T12:20:42.738Z,1.75
2023-11-18T12:22:01.676Z,1.72
2023-11-18T12:23:16.597Z,1.71
2023-11-18T12:24:22.847Z,1.70
2023-11-18T12:25:36.191Z,1.70
2023-11-18T12:26:44.116Z,1.68
2023-11-18T12:27:52.310Z,1.66
2023-11-18T12:28:56.338Z,1.63
2023-11-18T12:29:59.992Z,1.59
2023-11-18T12:31:17.399Z,1.57
2023-11-18T12:32:49.219Z,1.55
2023-11-18T12:34:06.598Z,1.52
2023-11-18T12:35:17.928Z,1.48
2023-11-18T12:37:05.892Z,1.46
2023-11-18T12:38:40.895Z,1.40
2023-11-18T12:40:25.131Z,1.35
2023-11-18T12:41:38.521Z,1.31
2023-11-18T12:43:05.869Z,1.29
2023-11-18T12:44:35.780Z,1.28
2023-11-18T12:46:08.188Z,1.25
2023-11-18T12:47:15.567Z,1.23
2023-11-18T12:48:27.409Z,1.23
2023-11-18T12:49:31.121Z,1.24
2023-11-18T12:50:36.435Z,1.23
2023-11-18T12:51:40.164Z,1.25
2023-11-18T12:52:45.268Z,1.26
2023-11-18T12:53:53.595Z,1.27
2023-11-18T12:54:58.950Z,1.27
2023-11-18T12:56:04.068Z,1.28
2023-11-18T12:57:07.888Z,1.28
2023-11-18T12:58:12.446Z,1.28
2023-11-18T12:59:18.236Z,1.28
2023-11-18T13:00:28.654Z,1.26
2023-11-18T13:01:34.310Z,1.26
2023-11-18T13:02:39.997Z,1.25
2023-11-18T13:03:44.784Z,1.24
2023-11-18T13:04:49.745Z,1.22
2023-11-18T13:05:53.930Z,1.19
2023-11-18T13:06:58.453Z,1.18
2023-11-18T13:08:02.440Z,1.17
2023-11-18T13:09:10.174Z,1.15
2023-11-18T13:10:15.980Z,1.13
2023-11-18T13:11:19.595Z,1.12
2023-11-18T13:12:24.199Z,1.10
2023-11-18T13:13:30.257Z,1.07
2023-11-18T13:14:37.311Z,1.05
2023-11-18T13:15:41.372Z,1.04
2023-11-18T13:16:46.605Z,1.02
2023-11-18T13:18:00.492Z,1.01
2023-11-18T13:19:05.721Z,0.99
2023-11-18T13:20:15.620Z,0.97
2023-11-18T13:21:20.977Z,0.97
2023-11-18T13:22:35.537Z,0.95
2023-11-18T13:23:53.094Z,0.93
2023-11-18T13:24:58.585Z,0.90
2023-11-18T13:26:04.320Z,0.87
2023-11-18T13:27:09.426Z,0.86
2023-11-18T13:28:14.105Z,0.85
2023-11-18T13:29:18.466Z,0.83
2023-11-18T13:30:22.100Z,0.83
2023-11-18T13:31:25.563Z,0.83
2023-11-18T13:32:29.048Z,0.85
2023-11-18T13:33:33.124Z,0.85
2023-11-18T13:34:39.513Z,0.87
2023-11-18T13:35:43.838Z,0.88
2023-11-18T13:36:48.096Z,0.90
2023-11-18T13:37:54.018Z,0.91
2023-11-18T13:38:57.383Z,0.91
2023-11-18T13:40:00.750Z,0.90
2023-11-18T13:41:05.404Z,0.89
2023-11-18T13:42:22.051Z,0.88
2023-11-18T13:43:25.679Z,0.88
2023-11-18T13:44:35.698Z,0.87
2023-11-18T13:45:40.183Z,0.86
2023-11-18T13:46:44.881Z,0.86
2023-11-18T13:47:57.237Z,0.87
2023-11-18T13:49:00.538Z,0.87
2023-11-18T13:50:09.080Z,0.88
2023-11-18T13:51:13.488Z,0.90
2023-11-18T13:52:19.127Z,0.90
2023-11-18T13:53:23.197Z,0.91
2023-11-18T13:54:31.714Z,0.91
2023-11-18T13:55:38.907Z,0.91
2023-11-18T13:56:43.403Z,0.89
2023-11-18T13:57:47.631Z,0.87
2023-11-18T13:58:51.659Z,0.85
2023-11-18T13:59:55.111Z,0.83
2023-11-18T14:00:59.807Z,0.82
2023-11-18T14:02:04.819Z,0.81
2023-11-18T14:03:12.222Z,0.81
2023-11-18T14:04:15.745Z,0.80
2023-11-18T14:05:21.989Z,0.81
2023-11-18T14:06:28.010Z,0.81
2023-11-18T14:07:32.429Z,0.82
2023-11-18T14:08:36.237Z,0.82
2023-11-18T14:09:42.523Z,0.84
2023-11-18T14:10:48.103Z,0.84
2023-11-18T14:11:57.247Z,0.85
2023-11-18T14:13:03.033Z,0.86
2023-11-18T14:14:08.862Z,0.86
2023-11-18T14:15:16.378Z,0.86
2023-11-18T14:16:21.683Z,0.86
2023-11-18T14:17:26.608Z,0.85
2023-11-18T14:18:30.379Z,0.84
2023-11-18T14:19:38.104Z,0.84
2023-11-18T14:20:41.903Z,0.82
2023-11-18T14:21:46.070Z,0.81
2023-11-18T14:22:50.487Z,0.80
2023-11-18T14:23:59.221Z,0.80
2023-11-18T14:25:06.516Z,0.79
2023-11-18T14:26:10.102Z,0.80
2023-11-18T14:27:14.333Z,0.80
2023-11-18T14:28:18.139Z,0.82
2023-11-18T14:29:21.698Z,0.83
2023-11-18T14:30:26.276Z,0.84
2023-11-18T14:31:29.748Z,0.85
2023-11-18T14:32:34.866Z,0.85
2023-11-18T14:33:38.213Z,0.86
2023-11-18T14:34:42.628Z,0.86
2023-11-18T14:35:47.538Z,0.85
2023-11-18T14:36:51.109Z,0.85
2023-11-18T14:37:54.510Z,0.86
2023-11-18T14:39:03.431Z,0.86
2023-11-18T14:40:13.589Z,0.88
2023-11-18T14:41:17.697Z,0.89
2023-11-18T14:42:23.969Z,0.90
2023-11-18T14:43:28.832Z,0.92